createdAt,value
2022-10-03T00:03:23.879Z,14.68
2022-10-03T00:08:43.309Z,14.71
2022-10-03T00:13:55.622Z,14.62
2022-10-03T00:19:07.389Z,14.51
2022-10-03T00:24:24.442Z,14.41
2022-10-03T00:30:16.193Z,14.42
2022-10-03T00:35:36.455Z,14.37
2022-10-03T00:41:31.670Z,14.31
2022-10-03T00:46:58.658Z,14.29
2022-10-03T00:52:20.521Z,14.23
2022-10-03T00:57:36.618Z,14.13
2022-10-03T01:02:50.878Z,14.03
2022-10-03T01:08:16.901Z,13.82
2022-10-03T01:13:32.637Z,13.74
2022-10-03T01:18:50.334Z,13.62
2022-10-03T01:24:34.702Z,13.39
2022-10-03T01:30:14.771Z,13.22
2022-10-03T01:35:27.503Z,13.01
2022-10-03T01:40:36.210Z,13.04
2022-10-03T01:45:49.902Z,13.02
2022-10-03T01:51:02.676Z,12.99
2022-10-03T01:56:13.837Z,12.95
2022-10-03T02:01:28.031Z,12.87
2022-10-03T02:06:43.026Z,12.77
2022-10-03T02:12:09.689Z,12.67
2022-10-03T02:17:24.091Z,12.47
2022-10-03T02:22:33.430Z,12.39
2022-10-03T02:27:59.043Z,12.27
2022-10-03T02:33:39.465Z,12.21
2022-10-03T02:39:08.830Z,12.21
2022-10-03T02:44:36.043Z,12.25
2022-10-03T02:50:07.410Z,12.23
2022-10-03T02:55:37.356Z,12.18
2022-10-03T03:01:20.782Z,12.15
2022-10-03T03:06:52.784Z,12.17
2022-10-03T03:12:47.745Z,12.12
2022-10-03T03:18:00.754Z,12.20
2022-10-03T03:23:31.263Z,12.16
2022-10-03T03:28:44.810Z,12.18
2022-10-03T03:33:59.330Z,12.10
2022-10-03T03:39:15.298Z,12.09
2022-10-03T03:44:32.318Z,12.09
2022-10-03T03:49:53.263Z,12.11
2022-10-03T03:55:08.518Z,11.95
2022-10-03T04:00:17.495Z,11.82
2022-10-03T04:05:35.362Z,11.85
2022-10-03T04:10:47.891Z,11.80
2022-10-03T04:16:06.485Z,11.83
2022-10-03T04:21:38.157Z,11.84
2022-10-03T04:27:04.146Z,11.82
2022-10-03T04:32:23.521Z,11.76
2022-10-03T04:37:40.677Z,11.68
2022-10-03T04:42:56.195Z,11.62
2022-10-03T04:48:11.049Z,11.56
2022-10-03T04:53:25.039Z,11.52
2022-10-03T04:58:37.569Z,11.49
2022-10-03T05:03:48.566Z,11.43
2022-10-03T05:09:00.614Z,11.28
2022-10-03T05:14:11.674Z,11.16
2022-10-03T05:19:42.822Z,11.11
2022-10-03T05:24:56.149Z,11.07
2022-10-03T05:30:03.119Z,11.04
2022-10-03T05:35:30.341Z,11.04
2022-10-03T05:40:36.722Z,11.03
2022-10-03T05:45:50.472Z,10.91
2022-10-03T05:51:32.189Z,10.78
2022-10-03T05:56:50.699Z,10.78
2022-10-03T06:02:11.584Z,10.70
2022-10-03T06:07:26.525Z,10.76
2022-10-03T06:12:36.337Z,10.86
2022-10-03T06:17:59.120Z,10.93
2022-10-03T06:23:40.790Z,10.95
2022-10-03T06:29:12.775Z,10.89
2022-10-03T06:34:48.752Z,10.90
2022-10-03T06:40:31.552Z,10.89
2022-10-03T06:45:56.808Z,10.94
2022-10-03T06:51:11.545Z,11.00
2022-10-03T06:56:59.063Z,11.07
2022-10-03T07:02:52.781Z,11.20
2022-10-03T07:08:29.960Z,11.38
2022-10-03T07:14:14.836Z,11.53
2022-10-03T07:19:52.011Z,11.68
2022-10-03T07:25:26.410Z,11.76
2022-10-03T07:30:48.592Z,11.88
2022-10-03T07:36:41.189Z,12.06
2022-10-03T07:41:57.927Z,12.16
2022-10-03T07:47:34.722Z,12.25
2022-10-03T07:52:54.880Z,12.39
2022-10-03T07:58:21.681Z,12.57
2022-10-03T08:03:56.831Z,12.71
2022-10-03T08:09:35.116Z,12.83
2022-10-03T08:14:52.094Z,12.96
2022-10-03T08:20:23.192Z,13.11
2022-10-03T08:25:39.761Z,13.24
2022-10-03T08:31:09.496Z,13.34
2022-10-03T08:36:45.476Z,13.48
2022-10-03T08:42:43.667Z,13.65
2022-10-03T08:48:28.303Z,13.83
2022-10-03T08:54:07.496Z,13.99
2022-10-03T08:59:57.995Z,14.15
2022-10-03T09:05:35.543Z,14.27
2022-10-03T09:11:16.543Z,14.36
2022-10-03T09:16:39.773Z,14.50
2022-10-03T09:22:12.652Z,14.63
2022-10-03T09:27:54.141Z,14.75
2022-10-03T09:33:34.554Z,14.96
2022-10-03T09:39:04.070Z,15.18
2022-10-03T09:44:33.648Z,15.30
2022-10-03T09:50:07.281Z,15.46
2022-10-03T09:55:38.173Z,15.63
2022-10-03T10:01:04.113Z,15.71
2022-10-03T10:06:34.446Z,15.86
2022-10-03T10:12:05.457Z,15.91
2022-10-03T10:17:45.075Z,15.92
2022-10-03T10:23:17.165Z,16.00
2022-10-03T10:28:52.741Z,16.10
2022-10-03T10:34:46.585Z,16.18
2022-10-03T10:40:22.489Z,16.34
2022-10-03T10:45:40.301Z,16.38
2022-10-03T10:51:17.515Z,16.46
2022-10-03T10:57:07.841Z,16.39
2022-10-03T11:02:45.049Z,16.41
2022-10-03T11:08:23.323Z,16.62
2022-10-03T11:14:03.018Z,16.87
2022-10-03T11:20:02.370Z,16.99
2022-10-03T11:25:40.487Z,17.09
2022-10-03T11:31:41.356Z,17.13
2022-10-03T11:37:18.909Z,17.28
2022-10-03T11:42:32.921Z,17.27
2022-10-03T11:47:46.893Z,17.29
2022-10-03T11:53:11.777Z,17.22
2022-10-03T11:58:34.100Z,17.19
2022-10-03T12:03:45.501Z,17.15
2022-10-03T12:09:03.923Z,17.13
2022-10-03T12:14:25.871Z,17.13
2022-10-03T12:19:34.093Z,17.12
2022-10-03T12:24:42.076Z,17.13
2022-10-03T12:29:54.936Z,17.19
2022-10-03T12:35:14.542Z,17.22
2022-10-03T12:40:22.497Z,17.19
2022-10-03T12:45:35.920Z,17.24
2022-10-03T12:50:48.497Z,17.23
2022-10-03T12:56:06.328Z,17.23
2022-10-03T13:01:18.001Z,17.25
2022-10-03T13:07:03.192Z,17.27
2022-10-03T13:12:16.648Z,17.25
2022-10-03T13:17:29.091Z,17.26
2022-10-03T13:22:43.569Z,17.26
2022-10-03T13:27:52.146Z,17.30
2022-10-03T13:33:01.289Z,17.30
2022-10-03T13:38:47.001Z,17.29
2022-10-03T13:43:57.102Z,17.24
2022-10-03T13:49:10.837Z,17.14
2022-10-03T13:54:21.559Z,17.14
2022-10-03T13:59:53.346Z,17.12
2022-10-03T14:05:09.325Z,17.17
2022-10-03T14:10:26.358Z,17.15
2022-10-03T14:15:38.055Z,17.12
2022-10-03T14:21:20.905Z,17.09
2022-10-03T14:26:31.406Z,17.14
2022-10-03T14:31:40.040Z,17.16
2022-10-03T14:36:48.332Z,17.15
2022-10-03T14:42:16.582Z,17.16
2022-10-03T14:47:21.814Z,17.17
2022-10-03T14:52:35.411Z,17.11
2022-10-03T14:58:05.889Z,17.12
2022-10-03T15:03:33.667Z,17.09
2022-10-03T15:08:42.855Z,17.06
2022-10-03T15:13:51.190Z,16.95
2022-10-03T15:18:57.571Z,16.95
2022-10-03T15:24:06.330Z,16.91
2022-10-03T15:29:17.326Z,17.05
2022-10-03T15:34:25.045Z,17.15
2022-10-03T15:39:35.304Z,17.17
2022-10-03T15:44:40.261Z,17.19
2022-10-03T15:49:50.825Z,17.17
2022-10-03T15:55:14.063Z,17.17
2022-10-03T16:00:27.566Z,17.16
2022-10-03T16:05:31.111Z,17.12
2022-10-03T16:10:39.642Z,17.05
2022-10-03T16:16:01.282Z,16.96
2022-10-03T16:21:05.195Z,16.85
2022-10-03T16:26:16.687Z,16.75
2022-10-03T16:31:23.789Z,16.60
2022-10-03T16:36:27.268Z,16.41
2022-10-03T16:41:34.434Z,16.19
2022-10-03T16:46:40.580Z,16.03
2022-10-03T16:51:46.819Z,15.87
2022-10-03T16:56:56.951Z,15.74
2022-10-03T17:02:05.741Z,15.56
2022-10-03T17:07:16.299Z,15.45
2022-10-03T17:12:26.745Z,15.31
2022-10-03T17:17:33.818Z,15.23
2022-10-03T17:22:42.351Z,15.15
2022-10-03T17:27:50.719Z,15.07
2022-10-03T17:32:56.566Z,14.98
2022-10-03T17:38:44.567Z,14.88
2022-10-03T17:43:46.602Z,14.83
2022-10-03T17:48:57.374Z,14.79
2022-10-03T17:54:04.265Z,14.81
2022-10-03T17:59:15.967Z,14.83
2022-10-03T18:04:21.182Z,14.86
2022-10-03T18:09:40.590Z,14.83
2022-10-03T18:14:55.823Z,14.90
2022-10-03T18:20:19.862Z,14.91
2022-10-03T18:26:15.098Z,14.91
2022-10-03T18:31:18.206Z,14.87
2022-10-03T18:36:26.954Z,14.88
2022-10-03T18:41:29.710Z,14.88
2022-10-03T18:46:40.816Z,14.87
2022-10-03T18:51:46.529Z,14.84
2022-10-03T18:57:03.536Z,14.82
2022-10-03T19:02:20.094Z,14.81
2022-10-03T19:07:25.057Z,14.80
2022-10-03T19:12:29.745Z,14.71
2022-10-03T19:17:40.300Z,14.73
2022-10-03T19:22:49.418Z,14.75
2022-10-03T19:27:56.294Z,14.73
2022-10-03T19:33:06.601Z,14.65
2022-10-03T19:38:17.017Z,14.55
2022-10-03T19:43:43.064Z,14.52
2022-10-03T19:48:52.413Z,14.52
2022-10-03T19:53:57.633Z,14.55
2022-10-03T19:59:04.285Z,14.50
2022-10-03T20:04:08.870Z,14.50
2022-10-03T20:09:24.221Z,14.49
2022-10-03T20:14:32.898Z,14.52
2022-10-03T20:19:54.302Z,14.54
2022-10-03T20:24:57.589Z,14.56
2022-10-03T20:30:08.370Z,14.48
2022-10-03T20:35:16.133Z,14.48
2022-10-03T20:40:35.799Z,14.40
2022-10-03T20:45:40.077Z,14.40
2022-10-03T20:50:46.786Z,14.36
2022-10-03T20:55:53.683Z,14.30
2022-10-03T21:01:02.225Z,14.32
2022-10-03T21:06:19.314Z,14.40
2022-10-03T21:11:25.204Z,14.45
2022-10-03T21:16:31.432Z,14.48
2022-10-03T21:21:42.855Z,14.46
2022-10-03T21:26:49.053Z,14.44
2022-10-03T21:32:07.973Z,14.45
2022-10-03T21:37:18.712Z,14.44
2022-10-03T21:42:28.153Z,14.48
2022-10-03T21:47:40.134Z,14.47
2022-10-03T21:53:03.557Z,14.48
2022-10-03T21:58:20.368Z,14.42
2022-10-03T22:03:27.350Z,14.43
2022-10-03T22:08:35.227Z,14.39
2022-10-03T22:13:40.814Z,14.37
2022-10-03T22:19:14.217Z,14.35
2022-10-03T22:24:26.787Z,14.34
2022-10-03T22:29:36.941Z,14.28
2022-10-03T22:34:48.935Z,14.25
2022-10-03T22:39:53.248Z,14.27
2022-10-03T22:44:57.094Z,14.24
2022-10-03T22:50:04.484Z,14.24
2022-10-03T22:55:13.414Z,14.23
2022-10-03T23:00:18.631Z,14.21
2022-10-03T23:05:31.658Z,14.19
2022-10-03T23:10:48.765Z,14.13
2022-10-03T23:15:58.523Z,14.11
2022-10-03T23:21:07.383Z,14.11
2022-10-03T23:26:49.793Z,14.09
2022-10-03T23:31:55.889Z,14.09
2022-10-03T23:37:03.389Z,14.09
2022-10-03T23:42:11.550Z,14.10
2022-10-03T23:47:18.049Z,14.11
2022-10-03T23:52:25.602Z,14.10
2022-10-03T23:57:35.082Z,14.11
